Time;durP1;ratioP1;P1;durP2;ratioP2;P2;SDS_P1;SDS_P2;PMS_P1;PMS_P2;Temp;Humidity;BMP_temperature;BMP_pressure;BME280_temperature;BME280_humidity;BME280_pressure;Samples;Min_cycle;Max_cycle;Signal;HPM_P1;HPM_P2
2021/04/10 00:00:19;;;;;;;3.40;2.43;;;2.10;99.90;0.70;96860.00;;;;5087458;28;20810;-71
2021/04/10 00:03:09;;;;;;;2.80;2.20;;;2.00;99.90;0.70;96859.00;;;;5088620;28;20448;-70
2021/04/10 00:05:57;;;;;;;4.67;2.77;;;2.00;99.90;0.60;96855.00;;;;5087742;28;20441;-68
2021/04/10 00:08:45;;;;;;;3.40;2.43;;;2.00;99.90;0.80;96854.00;;;;5088309;28;20430;-70
2021/04/10 00:11:34;;;;;;;6.13;2.20;;;1.90;99.90;0.90;96845.00;;;;5087689;28;20442;-69
2021/04/10 00:14:21;;;;;;;2.00;1.73;;;2.00;99.90;1.10;96844.00;;;;5100941;28;20944;-70
2021/04/10 00:17:09;;;;;;;2.43;2.20;;;2.10;99.90;1.10;96848.00;;;;5086594;28;20436;-69
2021/04/10 00:19:58;;;;;;;1.90;1.80;;;2.10;99.90;0.60;96849.00;;;;5086860;28;20442;-70
2021/04/10 00:22:47;;;;;;;2.53;1.97;;;2.10;99.90;0.60;96839.00;;;;5086471;28;20809;-70
2021/04/10 00:25:35;;;;;;;3.30;2.50;;;2.00;99.90;0.70;96832.00;;;;5088091;28;20441;-70
2021/04/10 00:28:22;;;;;;;3.70;2.43;;;1.90;99.90;0.60;96839.00;;;;5085690;28;20469;-70
2021/04/10 00:31:10;;;;;;;1.70;1.60;;;1.90;99.90;0.60;96829.00;;;;5086639;28;20449;-70
2021/04/10 00:33:58;;;;;;;2.17;1.97;;;1.90;99.90;0.60;96828.00;;;;5086210;28;20430;-69
2021/04/10 00:36:47;;;;;;;6.10;2.07;;;1.80;99.90;0.70;96823.00;;;;5084471;28;20450;-70
2021/04/10 00:39:34;;;;;;;2.83;2.00;;;1.90;99.90;0.70;96821.00;;;;5085819;28;20796;-70
2021/04/10 00:42:22;;;;;;;2.67;1.80;;;1.90;99.90;0.60;96827.00;;;;5086845;28;20448;-69
2021/04/10 00:45:11;;;;;;;3.73;2.00;;;1.90;99.90;0.30;96815.00;;;;5087256;28;20425;-69
2021/04/10 00:47:59;;;;;;;3.63;2.00;;;1.80;99.90;0.10;96824.00;;;;5085197;28;20476;-70
2021/04/10 00:50:47;;;;;;;1.93;1.83;;;1.70;99.90;0.00;96830.00;;;;5086106;28;20445;-69
2021/04/10 00:53:36;;;;;;;2.43;2.03;;;1.50;99.90;0.10;96820.00;;;;5087417;28;20421;-69
2021/04/10 00:56:24;;;;;;;3.10;1.83;;;1.40;99.90;0.00;96818.00;;;;5087535;28;20458;-70
2021/04/10 00:59:12;;;;;;;2.93;2.47;;;1.40;99.90;0.10;96817.00;;;;5087027;28;20433;-70
2021/04/10 01:02:02;;;;;;;2.67;1.77;;;1.30;99.90;-0.10;96817.00;;;;5085330;28;20815;-70
2021/04/10 01:04:50;;;;;;;3.77;2.00;;;1.30;99.90;-0.30;96811.00;;;;5085711;28;20445;-69
2021/04/10 01:07:38;;;;;;;2.40;2.20;;;1.20;99.90;-0.50;96811.00;;;;5084961;28;20469;-70
2021/04/10 01:10:28;;;;;;;2.00;1.80;;;1.10;99.90;-0.30;96817.00;;;;5086826;28;20422;-69
2021/04/10 01:13:32;;;;;;;2.77;1.93;;;1.10;99.90;-0.30;96816.00;;;;5087075;28;20940;-70
2021/04/10 01:16:25;;;;;;;3.53;2.00;;;1.10;99.90;-0.10;96821.00;;;;5086218;28;20436;-70
2021/04/10 01:19:33;;;;;;;3.53;1.87;;;1.00;99.90;-0.10;96817.00;;;;5086594;28;20444;-69
2021/04/10 01:22:37;;;;;;;2.47;1.80;;;1.10;99.90;-0.40;96811.00;;;;5085216;28;20461;-71
2021/04/10 01:25:40;;;;;;;1.87;1.67;;;1.10;99.90;-0.40;96809.00;;;;5086763;28;20421;-70
2021/04/10 01:28:51;;;;;;;3.90;1.70;;;0.90;99.90;-0.30;96804.00;;;;5085885;28;20512;-70
2021/04/10 01:31:43;;;;;;;1.73;1.60;;;1.00;99.90;-0.10;96819.00;;;;5084820;28;20464;-70
2021/04/10 01:34:35;;;;;;;2.17;2.07;;;1.00;99.90;-0.30;96810.00;;;;5085791;28;20433;-69
2021/04/10 01:37:28;;;;;;;2.50;2.00;;;1.00;99.90;-0.30;96809.00;;;;5085515;28;20445;-68
2021/04/10 01:40:16;;;;;;;2.03;1.50;;;1.00;99.90;-0.20;96804.00;;;;5086306;28;20807;-68
2021/04/10 01:43:07;;;;;;;2.27;1.93;;;1.00;99.90;-0.20;96805.00;;;;5085175;28;20425;-69
2021/04/10 01:45:57;;;;;;;4.50;1.93;;;1.00;99.90;-0.10;96810.00;;;;5086029;28;20452;-68
2021/04/10 01:48:47;;;;;;;6.30;2.17;;;1.10;99.90;-0.20;96807.00;;;;5085043;28;20481;-70
2021/04/10 01:51:36;;;;;;;3.03;2.20;;;1.10;99.90;-0.10;96810.00;;;;5085856;28;20453;-69
2021/04/10 01:54:25;;;;;;;1.67;1.57;;;1.10;99.90;-0.30;96807.00;;;;5085919;28;20425;-70
2021/04/10 01:57:14;;;;;;;5.80;2.67;;;1.10;99.90;-0.20;96815.00;;;;5087918;28;20425;-70
2021/04/10 02:00:05;;;;;;;3.93;2.60;;;1.00;99.90;-0.30;96801.00;;;;5084737;28;20430;-70
2021/04/10 02:02:55;;;;;;;3.13;2.10;;;1.00;99.90;-0.20;96805.00;;;;5084226;28;20429;-70
2021/04/10 02:05:44;;;;;;;2.57;2.13;;;1.00;99.90;-0.40;96810.00;;;;5084650;28;20439;-70
2021/04/10 02:08:34;;;;;;;5.43;2.30;;;1.00;99.90;-0.40;96813.00;;;;5083881;28;20983;-70
2021/04/10 02:11:22;;;;;;;2.93;1.97;;;1.00;99.90;-0.30;96811.00;;;;5084873;28;20442;-70
2021/04/10 02:14:12;;;;;;;3.07;1.53;;;0.90;99.90;-0.30;96807.00;;;;5083860;28;20457;-70
2021/04/10 02:17:00;;;;;;;2.10;1.90;;;0.90;99.90;-0.30;96802.00;;;;5085745;28;20433;-69
2021/04/10 02:19:52;;;;;;;1.73;1.63;;;0.90;99.90;-0.30;96805.00;;;;5085234;28;20445;-70
2021/04/10 02:22:42;;;;;;;2.50;1.90;;;1.00;99.90;-0.40;96806.00;;;;5084965;28;20456;-70
2021/04/10 02:25:31;;;;;;;2.43;1.87;;;0.90;99.90;-0.40;96808.00;;;;5085136;28;20426;-70
2021/04/10 02:28:18;;;;;;;4.53;2.33;;;0.80;99.90;-0.50;96800.00;;;;5084294;28;20496;-70
2021/04/10 02:31:07;;;;;;;5.43;2.10;;;0.90;99.90;-0.40;96795.00;;;;5085317;28;20449;-69
2021/04/10 02:33:59;;;;;;;2.47;2.27;;;0.90;99.90;-0.30;96799.00;;;;5083145;28;20418;-68
2021/04/10 02:36:50;;;;;;;8.33;2.10;;;1.00;99.90;0.00;96795.00;;;;5083729;28;20938;-70
2021/04/10 02:39:40;;;;;;;2.53;2.00;;;1.00;99.90;0.00;96785.00;;;;5084648;28;21058;-69
2021/04/10 02:42:31;;;;;;;3.63;2.03;;;1.10;99.90;-0.10;96781.00;;;;5084177;28;20941;-69
2021/04/10 02:45:26;;;;;;;4.57;2.17;;;1.10;99.90;-0.60;96778.00;;;;5084739;28;20440;-69
2021/04/10 02:48:25;;;;;;;4.87;1.70;;;1.00;99.90;-0.90;96780.00;;;;5084967;28;20499;-69
2021/04/10 02:51:14;;;;;;;3.57;2.37;;;0.80;99.90;-1.00;96785.00;;;;5084529;28;20460;-70
2021/04/10 02:54:06;;;;;;;7.67;2.57;;;0.60;99.90;-0.80;96780.00;;;;5084439;28;20434;-69
2021/04/10 02:57:02;;;;;;;2.60;2.03;;;0.60;99.90;-0.80;96777.00;;;;5087465;28;20979;-69
2021/04/10 02:59:58;;;;;;;2.57;2.23;;;0.50;99.90;-0.80;96771.00;;;;5085177;28;20432;-70
2021/04/10 03:02:47;;;;;;;3.20;2.13;;;0.50;99.90;-0.70;96770.00;;;;5085094;28;20433;-69
2021/04/10 03:05:40;;;;;;;3.73;2.07;;;0.50;99.90;-1.10;96770.00;;;;5085189;28;20952;-69
2021/04/10 03:08:29;;;;;;;3.30;2.67;;;0.50;99.90;-0.80;96768.00;;;;5083856;28;21030;-69
2021/04/10 03:11:18;;;;;;;3.07;2.20;;;0.40;99.90;-0.70;96780.00;;;;5083643;28;20449;-69
2021/04/10 03:14:07;;;;;;;4.77;2.47;;;0.50;99.90;-0.60;96790.00;;;;5083447;28;20433;-68
2021/04/10 03:16:56;;;;;;;3.00;2.70;;;0.50;99.90;-0.60;96784.00;;;;5084412;28;20429;-69
2021/04/10 03:19:45;;;;;;;2.17;1.80;;;0.60;99.90;-0.40;96790.00;;;;5082475;28;20441;-71
2021/04/10 03:22:33;;;;;;;3.93;2.20;;;0.70;99.90;-0.20;96804.00;;;;5064423;28;20454;-70
2021/04/10 03:25:21;;;;;;;2.33;2.13;;;0.80;99.90;-0.30;96809.00;;;;5066530;28;20439;-70
2021/04/10 03:28:11;;;;;;;2.83;2.17;;;0.90;99.90;-0.30;96796.00;;;;5067481;28;20513;-70
2021/04/10 03:31:02;;;;;;;2.40;2.10;;;0.90;99.90;-0.40;96803.00;;;;5070303;28;20454;-70
2021/04/10 03:33:50;;;;;;;5.97;2.43;;;0.90;99.90;-0.60;96800.00;;;;5064455;28;20434;-70
2021/04/10 03:36:38;;;;;;;2.23;2.03;;;0.90;99.90;-0.60;96798.00;;;;5064797;28;20974;-70
2021/04/10 03:39:26;;;;;;;3.10;2.07;;;0.80;99.90;-0.60;96791.00;;;;5063736;28;20434;-69
2021/04/10 03:42:15;;;;;;;2.60;2.40;;;0.70;99.90;-0.60;96788.00;;;;5066745;28;20462;-69
2021/04/10 03:45:06;;;;;;;6.73;2.33;;;0.70;99.90;-0.50;96795.00;;;;5066922;28;20426;-69
2021/04/10 03:48:06;;;;;;;2.90;2.30;;;0.70;99.90;-0.60;96788.00;;;;5067325;28;20466;-68
2021/04/10 03:50:54;;;;;;;5.77;1.90;;;0.70;99.90;-0.60;96792.00;;;;5067907;28;20462;-70
2021/04/10 03:53:42;;;;;;;2.70;2.47;;;0.70;99.90;-0.50;96794.00;;;;5066164;28;20466;-69
2021/04/10 03:56:31;;;;;;;3.53;2.70;;;0.70;99.90;-0.80;96795.00;;;;5070609;28;20438;-70
2021/04/10 03:59:18;;;;;;;4.17;2.53;;;0.60;99.90;-0.80;96781.00;;;;5068335;28;20430;-69
2021/04/10 04:02:16;;;;;;;4.50;2.60;;;0.60;99.90;-1.10;96775.00;;;;5067024;28;20456;-69
2021/04/10 04:05:05;;;;;;;4.47;3.07;;;0.40;99.90;-1.10;96769.00;;;;5066958;28;20426;-70
2021/04/10 04:07:53;;;;;;;1.67;1.40;;;0.30;99.90;-1.10;96772.00;;;;5066629;28;20474;-68
2021/04/10 04:10:41;;;;;;;2.13;1.93;;;0.20;99.90;-0.70;96777.00;;;;5067982;28;20450;-69
2021/04/10 04:13:29;;;;;;;2.17;1.83;;;0.30;99.90;-0.80;96782.00;;;;5066181;28;20469;-70
2021/04/10 04:16:17;;;;;;;3.80;2.17;;;0.40;99.90;-1.10;96778.00;;;;5072824;28;21071;-69
2021/04/10 04:19:06;;;;;;;2.70;2.50;;;0.30;99.90;-1.00;96784.00;;;;5070353;28;20539;-69
2021/04/10 04:21:53;;;;;;;2.57;2.30;;;0.30;99.90;-1.00;96791.00;;;;5066854;28;20450;-69
2021/04/10 04:24:41;;;;;;;3.77;1.83;;;0.30;99.90;-0.90;96791.00;;;;5067019;28;20430;-68
2021/04/10 04:27:29;;;;;;;2.67;1.67;;;0.30;99.90;-0.80;96779.00;;;;5067073;28;20481;-69
2021/04/10 04:30:19;;;;;;;2.30;2.07;;;0.40;99.90;-0.70;96788.00;;;;5067091;28;20435;-68
2021/04/10 04:33:07;;;;;;;4.80;2.67;;;0.40;99.90;-0.40;96803.00;;;;5066846;28;20454;-69
2021/04/10 04:35:55;;;;;;;3.13;2.07;;;0.50;99.90;-0.30;96800.00;;;;5067351;28;20815;-69
2021/04/10 04:38:43;;;;;;;7.47;2.73;;;0.70;99.90;-0.30;96797.00;;;;5083955;28;20956;-68
2021/04/10 04:41:31;;;;;;;3.20;2.90;;;0.80;99.90;-0.30;96794.00;;;;5078108;28;20454;-68
2021/04/10 04:44:19;;;;;;;5.40;3.17;;;0.90;99.90;0.00;96798.00;;;;5066459;28;20438;-70
2021/04/10 04:47:07;;;;;;;3.27;1.93;;;1.00;99.90;0.00;96803.00;;;;5066137;28;20426;-68
2021/04/10 04:49:55;;;;;;;2.80;2.20;;;1.10;99.90;-0.40;96793.00;;;;5067152;28;20439;-70
2021/04/10 04:52:44;;;;;;;5.23;2.73;;;1.00;99.90;-0.60;96781.00;;;;5065371;28;20447;-68
2021/04/10 04:55:31;;;;;;;4.63;2.47;;;0.90;99.90;-0.60;96788.00;;;;5068102;28;20429;-69
2021/04/10 04:58:19;;;;;;;6.03;2.67;;;0.80;99.90;-0.60;96790.00;;;;5065242;28;20469;-68
2021/04/10 05:01:07;;;;;;;5.70;2.83;;;0.80;99.90;-0.40;96789.00;;;;5065478;28;20454;-69
2021/04/10 05:03:55;;;;;;;4.07;1.97;;;0.80;99.90;-0.50;96789.00;;;;5066417;28;20439;-69
2021/04/10 05:06:43;;;;;;;4.93;1.77;;;0.80;99.90;-0.60;96784.00;;;;5066463;28;20427;-69
2021/04/10 05:09:31;;;;;;;4.00;2.00;;;0.80;99.90;-0.50;96788.00;;;;5065397;28;20442;-69
2021/04/10 05:12:19;;;;;;;3.97;2.27;;;0.80;99.90;-0.30;96783.00;;;;5065939;28;20629;-68
2021/04/10 05:15:08;;;;;;;2.87;2.27;;;0.80;99.90;0.00;96788.00;;;;5065631;28;20978;-68
2021/04/10 05:17:56;;;;;;;4.00;2.70;;;0.90;99.90;0.30;96804.00;;;;5065600;28;20427;-70
2021/04/10 05:20:44;;;;;;;5.63;2.40;;;1.10;99.90;0.50;96805.00;;;;5077112;28;20473;-70
2021/04/10 05:23:31;;;;;;;3.27;2.30;;;1.30;99.90;0.50;96797.00;;;;5085494;28;20429;-70
2021/04/10 05:26:20;;;;;;;2.77;2.20;;;1.50;99.90;0.70;96800.00;;;;5086209;28;20442;-69
2021/04/10 05:29:08;;;;;;;4.27;2.20;;;1.60;99.90;0.80;96799.00;;;;5086530;28;20849;-69
2021/04/10 05:31:56;;;;;;;3.00;2.63;;;1.80;99.90;1.00;96807.00;;;;5098308;28;20468;-68
2021/04/10 05:34:44;;;;;;;8.43;5.03;;;1.90;99.90;0.70;96809.00;;;;5103947;28;20447;-69
2021/04/10 05:37:31;;;;;;;3.33;2.53;;;2.00;99.90;0.70;96808.00;;;;5085698;28;20449;-69
2021/04/10 05:40:19;;;;;;;2.53;2.27;;;2.00;99.90;1.00;96807.00;;;;5089058;28;20439;-68
2021/04/10 05:43:08;;;;;;;4.27;2.50;;;2.00;99.90;1.40;96809.00;;;;5102849;28;20428;-69
2021/04/10 05:45:55;;;;;;;2.80;2.57;;;2.20;99.90;1.30;96812.00;;;;5098860;28;20455;-69
2021/04/10 05:48:43;;;;;;;1.60;1.50;;;3.20;99.90;1.40;96816.00;;;;5100091;28;21017;-69
2021/04/10 05:51:31;;;;;;;3.93;2.13;;;2.40;99.90;1.70;96820.00;;;;5103629;28;20445;-70
2021/04/10 05:54:19;;;;;;;2.73;1.77;;;2.50;99.90;1.80;96814.00;;;;5101122;28;20452;-70
2021/04/10 05:57:07;;;;;;;2.20;1.97;;;2.60;99.90;1.80;96812.00;;;;5088147;28;20451;-69
2021/04/10 05:59:55;;;;;;;5.17;2.23;;;2.70;99.90;2.00;96813.00;;;;5084891;28;20429;-69
2021/04/10 06:02:43;;;;;;;2.07;1.87;;;2.80;99.90;2.10;96809.00;;;;5093925;28;21157;-70
2021/04/10 06:05:31;;;;;;;2.00;1.80;;;3.00;99.90;1.80;96813.00;;;;5085070;28;20429;-69
2021/04/10 06:08:19;;;;;;;2.50;2.23;;;3.00;99.90;2.10;96813.00;;;;5085280;28;20827;-69
2021/04/10 06:10:53;;;;;;;3.10;2.50;;;3.10;99.90;2.30;96824.00;;;;5096130;28;20868;-69
2021/04/10 06:13:21;;;;;;;3.67;2.53;;;3.20;99.90;2.70;96819.00;;;;5092064;28;20426;-69
2021/04/10 06:15:51;;;;;;;2.93;2.43;;;3.40;99.90;2.80;96821.00;;;;5086730;28;20437;-69
2021/04/10 06:18:19;;;;;;;2.93;2.23;;;3.50;99.90;2.90;96830.00;;;;5087804;28;20472;-69
2021/04/10 06:20:46;;;;;;;2.20;1.77;;;3.70;99.90;3.10;96838.00;;;;5086765;28;20518;-69
2021/04/10 06:23:14;;;;;;;3.17;2.33;;;3.80;99.90;3.30;96832.00;;;;5085414;28;20429;-70
2021/04/10 06:25:42;;;;;;;3.57;2.80;;;4.00;99.90;3.70;96833.00;;;;5088283;27;20463;-67
2021/04/10 06:28:10;;;;;;;3.67;2.60;;;4.20;99.90;3.90;96836.00;;;;5100268;28;20508;-66
2021/04/10 06:30:38;;;;;;;5.73;3.30;;;4.40;99.90;4.00;96818.00;;;;5100297;28;20458;-67
2021/04/10 06:33:07;;;;;;;4.27;2.80;;;4.60;99.90;4.30;96835.00;;;;5099158;28;20440;-67
2021/04/10 06:35:35;;;;;;;6.63;2.80;;;4.80;99.90;4.60;96837.00;;;;5085773;28;20483;-67
2021/04/10 06:38:03;;;;;;;10.13;3.67;;;5.10;99.90;4.70;96842.00;;;;5085418;28;20438;-67
2021/04/10 06:40:31;;;;;;;5.93;2.90;;;5.30;99.90;4.80;96833.00;;;;5086042;28;20441;-67
2021/04/10 06:43:03;;;;;;;3.40;2.70;;;5.50;99.90;5.00;96834.00;;;;5085832;28;20430;-67
2021/04/10 06:45:30;;;;;;;5.47;3.50;;;5.60;99.90;5.20;96841.00;;;;5088592;28;20434;-67
2021/04/10 06:48:03;;;;;;;5.67;2.93;;;5.80;99.90;5.50;96837.00;;;;5095187;28;20481;-67
2021/04/10 06:50:31;;;;;;;5.60;3.27;;;6.00;99.90;5.80;96836.00;;;;5094112;28;20442;-68
2021/04/10 06:53:01;;;;;;;4.63;3.07;;;6.20;99.90;6.00;96838.00;;;;5087122;28;20445;-68
2021/04/10 06:55:32;;;;;;;5.50;4.60;;;6.40;99.90;6.10;96835.00;;;;5085856;28;20438;-68
2021/04/10 06:58:03;;;;;;;7.20;3.47;;;6.60;99.90;6.20;96838.00;;;;5097334;28;20446;-68
2021/04/10 07:00:32;;;;;;;7.73;3.53;;;6.80;99.90;6.30;96842.00;;;;5103694;28;20519;-68
2021/04/10 07:03:02;;;;;;;5.87;3.13;;;6.90;99.90;6.30;96842.00;;;;5101565;28;20194;-68
2021/04/10 07:05:31;;;;;;;6.00;4.07;;;7.00;99.90;6.60;96838.00;;;;5103198;28;20199;-67
2021/04/10 07:07:59;;;;;;;4.67;3.00;;;7.10;99.90;6.80;96837.00;;;;5102396;28;20218;-67
2021/04/10 07:10:27;;;;;;;8.17;3.43;;;7.30;99.90;7.00;96834.00;;;;5107834;28;20201;-66
2021/04/10 07:12:55;;;;;;;3.67;3.13;;;7.50;99.80;7.30;96840.00;;;;5109035;28;20203;-66
2021/04/10 07:15:22;;;;;;;8.47;3.93;;;7.70;97.80;7.50;96838.00;;;;5109069;28;20194;-66
2021/04/10 07:18:02;;;;;;;3.90;3.03;;;7.90;96.60;7.80;96827.00;;;;5103032;28;20278;-66
2021/04/10 07:20:33;;;;;;;4.90;3.47;;;8.10;97.20;8.00;96830.00;;;;5102179;28;20202;-68
2021/04/10 07:23:05;;;;;;;5.93;3.43;;;8.40;95.70;8.20;96828.00;;;;5103670;28;20272;-68
2021/04/10 07:25:36;;;;;;;6.40;3.10;;;8.60;94.50;8.60;96832.00;;;;5074967;28;20210;-68
2021/04/10 07:28:26;;;;;;;3.53;3.07;;;8.80;93.20;9.00;96824.00;;;;5068844;28;20219;-66
2021/04/10 07:31:00;;;;;;;5.43;3.00;;;9.10;92.50;9.30;96827.00;;;;5076303;28;20234;-68
2021/04/10 07:33:29;;;;;;;6.57;2.97;;;9.50;91.50;9.80;96832.00;;;;5081332;28;20193;-68
2021/04/10 07:36:00;;;;;;;4.67;2.53;;;9.80;88.90;10.30;96836.00;;;;5080124;28;20191;-68
2021/04/10 07:38:31;;;;;;;3.67;2.90;;;10.10;81.00;10.40;96828.00;;;;5091738;28;20206;-68
2021/04/10 07:41:01;;;;;;;3.83;2.63;;;10.50;77.50;10.60;96821.00;;;;5092919;28;20234;-68
2021/04/10 07:43:31;;;;;;;4.77;2.30;;;10.80;75.40;10.90;96825.00;;;;5075287;28;20301;-68
2021/04/10 07:46:18;;;;;;;5.50;2.80;;;11.00;74.10;11.20;96829.00;;;;5077082;28;20230;-68
2021/04/10 07:49:08;;;;;;;4.00;2.63;;;11.30;71.80;11.30;96831.00;;;;5079171;28;20250;-68
2021/04/10 07:51:39;;;;;;;4.90;2.67;;;11.60;67.50;11.40;96822.00;;;;5079461;28;20239;-68
2021/04/10 07:54:25;;;;;;;7.17;3.27;;;11.80;65.00;11.60;96821.00;;;;5089458;28;20207;-68
2021/04/10 07:56:59;;;;;;;2.80;1.93;;;12.00;64.20;11.60;96821.00;;;;5097788;28;20236;-67
2021/04/10 07:59:30;;;;;;;4.90;3.17;;;12.10;63.00;11.80;96833.00;;;;5077496;28;20227;-67
2021/04/10 08:02:12;;;;;;;3.93;2.73;;;12.20;62.30;12.10;96832.00;;;;5071212;28;20251;-68
2021/04/10 08:04:41;;;;;;;3.53;2.57;;;12.40;62.60;12.40;96822.00;;;;5071045;28;20212;-68
2021/04/10 08:07:12;;;;;;;4.53;2.60;;;12.60;62.00;12.50;96822.00;;;;5071015;28;20204;-68
2021/04/10 08:09:41;;;;;;;5.70;2.70;;;12.70;61.40;12.70;96815.00;;;;5071225;28;20277;-67
2021/04/10 08:12:11;;;;;;;5.23;2.57;;;12.90;60.60;13.00;96826.00;;;;5070994;28;20239;-68
2021/04/10 08:14:42;;;;;;;5.93;2.23;;;13.10;60.50;13.10;96821.00;;;;5071101;28;20196;-68
2021/04/10 08:17:10;;;;;;;2.80;2.30;;;13.30;59.30;13.20;96820.00;;;;5071041;28;20290;-68
2021/04/10 08:19:39;;;;;;;4.07;2.53;;;13.50;58.60;13.30;96814.00;;;;5072150;28;20190;-68
2021/04/10 08:22:09;;;;;;;6.00;3.73;;;13.70;58.30;13.20;96822.00;;;;5103762;28;20232;-68
2021/04/10 08:24:41;;;;;;;4.27;2.43;;;13.70;57.10;13.30;96820.00;;;;5100864;28;20194;-68
2021/04/10 08:27:11;;;;;;;2.80;2.53;;;13.80;57.20;13.40;96833.00;;;;5109519;28;20191;-68
2021/04/10 08:29:41;;;;;;;2.60;1.90;;;13.90;56.80;13.60;96827.00;;;;5111470;28;20218;-68
2021/04/10 08:32:10;;;;;;;4.30;2.40;;;14.00;56.90;13.60;96827.00;;;;5111375;28;20264;-68
2021/04/10 08:34:39;;;;;;;2.73;2.10;;;14.10;56.90;13.90;96820.00;;;;5110891;28;20277;-68
2021/04/10 08:37:09;;;;;;;3.47;2.40;;;14.20;56.60;14.00;96820.00;;;;5099772;28;20210;-68
2021/04/10 08:39:40;;;;;;;3.70;2.67;;;14.30;56.60;14.00;96830.00;;;;5111455;28;20198;-68
2021/04/10 08:42:12;;;;;;;3.37;2.20;;;14.50;55.70;14.30;96831.00;;;;5111709;28;20224;-68
2021/04/10 08:44:41;;;;;;;6.30;1.87;;;14.60;56.10;14.00;96832.00;;;;5110958;28;20199;-68
2021/04/10 08:47:09;;;;;;;3.80;2.13;;;14.70;54.50;14.00;96834.00;;;;5115259;27;20182;-68
2021/04/10 08:49:42;;;;;;;4.13;2.13;;;14.70;54.10;14.10;96836.00;;;;5100078;27;20233;-68
2021/04/10 08:52:19;;;;;;;3.90;2.23;;;14.70;53.70;14.50;96835.00;;;;5100541;28;20218;-68
2021/04/10 08:54:51;;;;;;;4.10;2.07;;;14.80;54.80;14.50;96835.00;;;;5109742;28;20277;-68
2021/04/10 08:57:19;;;;;;;6.20;2.00;;;14.90;54.40;14.40;96830.00;;;;5099816;27;20191;-68
2021/04/10 08:59:48;;;;;;;4.93;2.70;;;15.00;53.40;14.80;96825.00;;;;5090088;28;20268;-68
2021/04/10 09:02:18;;;;;;;5.37;2.67;;;15.10;53.30;15.00;96837.00;;;;5090321;28;20231;-68
2021/04/10 09:04:59;;;;;;;3.20;2.10;;;15.20;53.70;15.10;96832.00;;;;5090260;28;20203;-69
2021/04/10 09:08:07;;;;;;;4.67;2.13;;;15.40;54.00;14.90;96835.00;;;;5105890;28;20210;-68
2021/04/10 09:10:47;;;;;;;2.87;1.73;;;15.50;52.20;14.80;96818.00;;;;5107824;28;20212;-68
2021/04/10 09:13:31;;;;;;;4.13;2.03;;;15.60;51.00;15.40;96822.00;;;;5106404;28;20194;-68
2021/04/10 09:16:38;;;;;;;3.00;2.00;;;15.70;51.60;16.10;96835.00;;;;5111752;22;20230;-84
2021/04/10 09:19:16;;;;;;;3.67;2.00;;;16.00;52.50;16.30;96852.00;;;;5070532;28;20318;-86
2021/04/10 09:21:48;;;;;;;4.50;2.60;;;16.20;52.30;16.20;96842.00;;;;5063235;28;20196;-86
2021/04/10 09:24:41;;;;;;;5.70;2.77;;;16.40;52.30;16.20;96847.00;;;;5072470;28;20641;-86
2021/04/10 09:27:18;;;;;;;3.53;2.20;;;16.50;51.80;16.40;96851.00;;;;5069976;28;20227;-85
2021/04/10 09:29:50;;;;;;;3.63;2.10;;;16.70;51.80;16.30;96854.00;;;;5071789;28;20301;-86
2021/04/10 09:32:41;;;;;;;4.10;2.30;;;16.70;50.90;16.30;96855.00;;;;5058271;28;20196;-83
2021/04/10 09:35:14;;;;;;;6.40;2.10;;;16.80;50.80;16.00;96844.00;;;;5069586;28;20188;-86
2021/04/10 09:37:51;;;;;;;3.67;2.17;;;16.70;50.50;16.10;96843.00;;;;5071750;28;20223;-85
2021/04/10 09:40:51;;;;;;;4.33;2.20;;;16.70;50.20;16.40;96843.00;;;;5067993;28;20705;-84
2021/04/10 09:43:21;;;;;;;5.63;2.20;;;16.70;50.50;16.40;96841.00;;;;5064072;28;20548;-84
2021/04/10 09:45:51;;;;;;;2.77;2.00;;;16.80;50.70;16.70;96846.00;;;;5071312;28;20195;-85
2021/04/10 09:48:35;;;;;;;4.03;1.93;;;16.90;51.70;16.60;96846.00;;;;5064456;28;20273;-85
2021/04/10 09:51:14;;;;;;;4.47;2.10;;;16.90;50.90;16.50;96831.00;;;;5060220;28;20716;-85
2021/04/10 09:53:50;;;;;;;3.33;1.93;;;17.00;50.10;17.10;96832.00;;;;5070254;28;20195;-85
2021/04/10 09:56:20;;;;;;;5.43;2.27;;;17.20;51.30;17.60;96830.00;;;;5060094;28;20724;-85
2021/04/10 09:58:58;;;;;;;4.63;3.07;;;17.40;50.90;17.60;96834.00;;;;5068694;28;20235;-86
2021/04/10 10:01:44;;;;;;;4.23;2.40;;;17.60;50.70;17.60;96832.00;;;;5061216;28;20216;-85
2021/04/10 10:04:13;;;;;;;3.83;2.03;;;17.80;50.60;17.30;96824.00;;;;5060231;28;20673;-85
2021/04/10 10:06:46;;;;;;;4.07;2.00;;;17.90;49.60;17.50;96824.00;;;;5069805;28;20219;-85
2021/04/10 10:09:30;;;;;;;3.17;2.30;;;17.90;49.40;17.90;96818.00;;;;5070214;28;20196;-86
2021/04/10 10:12:28;;;;;;;5.83;3.10;;;18.10;49.90;18.00;96819.00;;;;5069854;28;20218;-87
2021/04/10 10:14:55;;;;;;;3.07;2.20;;;18.20;50.10;18.10;96824.00;;;;5069752;28;20227;-86
2021/04/10 10:17:28;;;;;;;6.03;2.67;;;18.30;50.10;18.00;96827.00;;;;5070548;28;20220;-86
2021/04/10 10:20:08;;;;;;;5.60;3.20;;;18.40;49.40;18.30;96815.00;;;;5070789;28;20686;-87
2021/04/10 10:22:36;;;;;;;3.63;2.33;;;18.50;49.60;18.30;96810.00;;;;5071517;28;20214;-84
2021/04/10 10:25:07;;;;;;;5.73;2.50;;;18.60;48.60;18.50;96800.00;;;;5071778;28;20634;-85
2021/04/10 10:27:37;;;;;;;3.40;2.47;;;18.70;48.70;19.10;96793.00;;;;5071918;28;20304;-85
2021/04/10 10:30:13;;;;;;;3.50;2.13;;;19.00;47.90;19.30;96799.00;;;;5072109;28;20196;-86
2021/04/10 10:32:46;;;;;;;6.23;2.93;;;19.20;48.70;19.40;96804.00;;;;5070979;28;20206;-85
2021/04/10 10:35:16;;;;;;;5.27;2.50;;;19.30;48.00;19.70;96781.00;;;;5070767;28;20196;-87
2021/04/10 10:37:47;;;;;;;5.07;2.77;;;19.50;47.60;19.50;96787.00;;;;5070534;28;20237;-85
2021/04/10 10:40:21;;;;;;;3.70;2.53;;;19.70;46.50;20.00;96776.00;;;;5069602;28;20234;-87
2021/04/10 10:43:10;;;;;;;3.97;2.33;;;19.90;46.70;20.10;96782.00;;;;5067595;28;20692;-85
2021/04/10 10:45:49;;;;;;;4.00;3.00;;;20.10;46.30;20.20;96780.00;;;;5069871;28;20215;-86
2021/04/10 10:48:24;;;;;;;4.03;2.30;;;20.20;45.00;20.20;96785.00;;;;5069417;28;20231;-86
2021/04/10 10:50:56;;;;;;;3.30;2.43;;;20.40;44.50;18.70;96782.00;;;;5073505;28;20710;-86
2021/04/10 10:53:26;;;;;;;6.43;2.20;;;20.10;43.80;17.50;96769.00;;;;5070539;28;20228;-81
2021/04/10 10:56:10;;;;;;;6.07;2.67;;;19.40;44.20;17.40;96780.00;;;;5072317;28;20245;-85
2021/04/10 10:58:59;;;;;;;4.73;2.20;;;18.80;45.00;17.30;96799.00;;;;5074034;28;20230;-86
2021/04/10 11:01:32;;;;;;;4.33;2.60;;;18.40;46.10;16.70;96785.00;;;;5071519;28;20200;-85
2021/04/10 11:04:08;;;;;;;2.40;2.20;;;17.90;46.00;16.70;96788.00;;;;5059730;28;20207;-85
2021/04/10 11:06:43;;;;;;;3.20;2.70;;;17.60;46.80;16.30;96774.00;;;;5074334;28;20196;-85
2021/04/10 11:09:16;;;;;;;3.07;2.63;;;17.30;46.50;16.20;96786.00;;;;5076178;28;20275;-87
2021/04/10 11:11:49;;;;;;;5.17;2.87;;;17.00;46.90;16.40;96775.00;;;;5075255;28;20267;-85
2021/04/10 11:14:20;;;;;;;7.67;2.97;;;17.00;47.20;16.40;96780.00;;;;5073879;28;20313;-86
2021/04/10 11:16:50;;;;;;;3.73;2.00;;;16.90;47.20;16.30;96783.00;;;;5068973;28;20216;-86
2021/04/10 11:19:29;;;;;;;3.67;2.30;;;16.90;47.60;16.30;96766.00;;;;5065211;28;20217;-86
2021/04/10 11:21:58;;;;;;;3.40;2.43;;;16.90;47.20;16.60;96766.00;;;;5069081;28;20212;-86
2021/04/10 11:24:36;;;;;;;5.50;2.70;;;17.00;47.00;16.50;96766.00;;;;5070400;28;20250;-86
2021/04/10 11:27:25;;;;;;;4.97;2.53;;;17.10;46.30;16.60;96776.00;;;;5064071;28;20313;-86
2021/04/10 11:29:55;;;;;;;3.53;2.53;;;17.10;46.40;16.70;96774.00;;;;5066443;28;20196;-86
2021/04/10 11:32:43;;;;;;;3.33;2.33;;;17.30;45.90;17.20;96777.00;;;;5053846;28;20278;-85
2021/04/10 11:35:16;;;;;;;2.77;2.50;;;17.40;46.60;17.10;96770.00;;;;5061615;28;20203;-86
2021/04/10 11:37:48;;;;;;;4.73;2.27;;;17.50;45.80;17.20;96765.00;;;;5068312;28;20330;-87
2021/04/10 11:40:26;;;;;;;3.87;2.50;;;17.70;45.70;17.50;96759.00;;;;5058986;28;20273;-87
2021/04/10 11:42:55;;;;;;;5.90;2.60;;;17.70;45.60;17.30;96760.00;;;;5066045;28;20196;-87
2021/04/10 11:45:30;;;;;;;4.13;2.47;;;17.80;45.50;17.80;96752.00;;;;5079226;28;20279;-86
2021/04/10 11:48:14;;;;;;;4.03;2.33;;;18.10;46.30;17.70;96758.00;;;;5090732;28;20202;-86
2021/04/10 11:50:54;;;;;;;5.13;2.97;;;18.20;44.80;17.20;96749.00;;;;5088108;28;20208;-86
2021/04/10 11:53:26;;;;;;;3.70;2.47;;;18.10;44.30;17.70;96750.00;;;;5087529;28;20287;-85
2021/04/10 11:55:57;;;;;;;3.27;2.07;;;18.10;44.90;17.40;96741.00;;;;5089276;28;20750;-87
2021/04/10 11:58:34;;;;;;;4.80;2.63;;;18.10;45.10;17.10;96746.00;;;;5086585;28;20213;-86
2021/04/10 12:01:11;;;;;;;5.27;2.53;;;18.00;45.00;17.30;96747.00;;;;5081758;28;20242;-84
2021/04/10 12:03:52;;;;;;;3.63;2.40;;;17.80;44.80;17.40;96727.00;;;;5085439;28;20203;-82
2021/04/10 12:06:32;;;;;;;2.93;2.33;;;17.90;45.30;17.20;96725.00;;;;5091583;28;20200;-87